sensor_id;sensor_type;location;lat;lon;timestamp;temperature;humidity
21019;DHT22;10667;51.056;3.732;2023-04-24T00:00:04;10.80;99.90
21019;DHT22;10667;51.056;3.732;2023-04-24T00:02:34;10.90;99.90
21019;DHT22;10667;51.056;3.732;2023-04-24T00:05:03;10.80;99.90
21019;DHT22;10667;51.056;3.732;2023-04-24T00:07:29;10.90;99.90
21019;DHT22;10667;51.056;3.732;2023-04-24T00:09:55;10.90;99.90
21019;DHT22;10667;51.056;3.732;2023-04-24T00:12:21;10.80;99.90
21019;DHT22;10667;51.056;3.732;2023-04-24T00:14:47;10.80;99.90
21019;DHT22;10667;51.056;3.732;2023-04-24T00:17:13;10.90;99.90
21019;DHT22;10667;51.056;3.732;2023-04-24T00:19:38;10.80;99.90
21019;DHT22;10667;51.056;3.732;2023-04-24T00:22:04;10.70;99.90
21019;DHT22;10667;51.056;3.732;2023-04-24T00:24:30;10.60;99.90
21019;DHT22;10667;51.056;3.732;2023-04-24T00:26:56;10.60;99.90
21019;DHT22;10667;51.056;3.732;2023-04-24T00:29:22;10.60;99.90
21019;DHT22;10667;51.056;3.732;2023-04-24T00:31:47;10.70;99.90
21019;DHT22;10667;51.056;3.732;2023-04-24T00:34:13;10.60;99.90
21019;DHT22;10667;51.056;3.732;2023-04-24T00:36:39;10.60;99.90
21019;DHT22;10667;51.056;3.732;2023-04-24T00:39:05;10.60;99.90
21019;DHT22;10667;51.056;3.732;2023-04-24T00:41:34;10.70;99.90
21019;DHT22;10667;51.056;3.732;2023-04-24T00:44:00;10.60;99.90
21019;DHT22;10667;51.056;3.732;2023-04-24T00:46:26;10.60;99.90
21019;DHT22;10667;51.056;3.732;2023-04-24T00:48:52;10.40;99.90
21019;DHT22;10667;51.056;3.732;2023-04-24T00:51:17;10.50;99.90
21019;DHT22;10667;51.056;3.732;2023-04-24T00:53:43;10.50;99.90
21019;DHT22;10667;51.056;3.732;2023-04-24T00:56:09;10.50;99.90
21019;DHT22;10667;51.056;3.732;2023-04-24T00:58:35;10.40;99.90
21019;DHT22;10667;51.056;3.732;2023-04-24T01:01:01;10.40;99.90
21019;DHT22;10667;51.056;3.732;2023-04-24T01:03:29;10.50;99.90
21019;DHT22;10667;51.056;3.732;2023-04-24T01:05:58;10.60;99.90
21019;DHT22;10667;51.056;3.732;2023-04-24T01:08:24;10.60;99.90
21019;DHT22;10667;51.056;3.732;2023-04-24T01:10:52;10.60;99.90
21019;DHT22;10667;51.056;3.732;2023-04-24T01:13:19;10.70;99.90
21019;DHT22;10667;51.056;3.732;2023-04-24T01:15:45;10.70;99.90
21019;DHT22;10667;51.056;3.732;2023-04-24T01:18:11;10.60;99.90
21019;DHT22;10667;51.056;3.732;2023-04-24T01:20:40;10.50;99.90
21019;DHT22;10667;51.056;3.732;2023-04-24T01:23:06;10.50;99.90
21019;DHT22;10667;51.056;3.732;2023-04-24T01:25:32;10.30;99.90
21019;DHT22;10667;51.056;3.732;2023-04-24T01:27:58;10.30;99.90
21019;DHT22;10667;51.056;3.732;2023-04-24T01:30:25;10.50;99.90
21019;DHT22;10667;51.056;3.732;2023-04-24T01:32:51;10.30;99.90
21019;DHT22;10667;51.056;3.732;2023-04-24T01:35:17;10.30;99.90
21019;DHT22;10667;51.056;3.732;2023-04-24T01:37:43;10.30;99.90
21019;DHT22;10667;51.056;3.732;2023-04-24T01:40:09;10.30;99.90
21019;DHT22;10667;51.056;3.732;2023-04-24T01:42:35;10.30;99.90
21019;DHT22;10667;51.056;3.732;2023-04-24T01:45:02;10.30;99.90
21019;DHT22;10667;51.056;3.732;2023-04-24T01:47:30;10.30;99.90
21019;DHT22;10667;51.056;3.732;2023-04-24T01:49:55;10.20;99.90
21019;DHT22;10667;51.056;3.732;2023-04-24T01:52:21;10.50;99.90
21019;DHT22;10667;51.056;3.732;2023-04-24T01:54:47;10.40;99.90
21019;DHT22;10667;51.056;3.732;2023-04-24T01:57:14;10.40;99.90
21019;DHT22;10667;51.056;3.732;2023-04-24T01:59:40;10.30;99.90
21019;DHT22;10667;51.056;3.732;2023-04-24T02:02:05;10.20;99.90
21019;DHT22;10667;51.056;3.732;2023-04-24T02:04:31;10.20;99.90
21019;DHT22;10667;51.056;3.732;2023-04-24T02:06:57;10.10;99.90
21019;DHT22;10667;51.056;3.732;2023-04-24T02:09:23;10.10;99.90
21019;DHT22;10667;51.056;3.732;2023-04-24T02:11:48;10.10;99.90
21019;DHT22;10667;51.056;3.732;2023-04-24T02:14:14;10.20;99.90
21019;DHT22;10667;51.056;3.732;2023-04-24T02:16:40;10.10;99.90
21019;DHT22;10667;51.056;3.732;2023-04-24T02:19:05;10.20;99.90
21019;DHT22;10667;51.056;3.732;2023-04-24T02:21:31;10.20;99.90
21019;DHT22;10667;51.056;3.732;2023-04-24T02:23:58;10.00;99.90
21019;DHT22;10667;51.056;3.732;2023-04-24T02:26:23;9.90;99.90
21019;DHT22;10667;51.056;3.732;2023-04-24T02:28:49;9.90;99.90
21019;DHT22;10667;51.056;3.732;2023-04-24T02:31:14;9.70;99.90
21019;DHT22;10667;51.056;3.732;2023-04-24T02:33:40;9.70;99.90
21019;DHT22;10667;51.056;3.732;2023-04-24T02:36:06;9.90;99.90
21019;DHT22;10667;51.056;3.732;2023-04-24T02:38:31;10.00;99.90
21019;DHT22;10667;51.056;3.732;2023-04-24T02:40:58;9.90;99.90
21019;DHT22;10667;51.056;3.732;2023-04-24T02:43:23;9.90;99.90
21019;DHT22;10667;51.056;3.732;2023-04-24T02:45:49;9.90;99.90
21019;DHT22;10667;51.056;3.732;2023-04-24T02:48:15;9.80;99.90
21019;DHT22;10667;51.056;3.732;2023-04-24T02:50:40;9.80;99.90
21019;DHT22;10667;51.056;3.732;2023-04-24T02:53:06;9.90;99.90
21019;DHT22;10667;51.056;3.732;2023-04-24T02:55:32;10.10;99.90
21019;DHT22;10667;51.056;3.732;2023-04-24T02:57:57;10.30;99.90
21019;DHT22;10667;51.056;3.732;2023-04-24T03:00:23;10.30;99.90
21019;DHT22;10667;51.056;3.732;2023-04-24T03:02:49;10.30;99.90
21019;DHT22;10667;51.056;3.732;2023-04-24T03:05:15;10.30;99.90
21019;DHT22;10667;51.056;3.732;2023-04-24T03:07:41;10.30;99.90
21019;DHT22;10667;51.056;3.732;2023-04-24T03:10:07;10.30;99.90
21019;DHT22;10667;51.056;3.732;2023-04-24T03:12:33;10.30;99.90
21019;DHT22;10667;51.056;3.732;2023-04-24T03:14:58;10.30;99.90
21019;DHT22;10667;51.056;3.732;2023-04-24T03:17:24;10.30;99.90
21019;DHT22;10667;51.056;3.732;2023-04-24T03:19:50;10.30;99.90
21019;DHT22;10667;51.056;3.732;2023-04-24T03:22:16;10.30;99.90
21019;DHT22;10667;51.056;3.732;2023-04-24T03:24:41;10.30;99.90
21019;DHT22;10667;51.056;3.732;2023-04-24T03:27:07;10.30;99.90
21019;DHT22;10667;51.056;3.732;2023-04-24T03:29:33;10.30;99.90
21019;DHT22;10667;51.056;3.732;2023-04-24T03:31:58;10.30;99.90
21019;DHT22;10667;51.056;3.732;2023-04-24T03:34:24;10.20;99.90
21019;DHT22;10667;51.056;3.732;2023-04-24T03:36:50;10.10;99.90
21019;DHT22;10667;51.056;3.732;2023-04-24T03:39:16;10.00;99.90
21019;DHT22;10667;51.056;3.732;2023-04-24T03:41:41;10.00;99.90
21019;DHT22;10667;51.056;3.732;2023-04-24T03:44:07;9.80;99.90
21019;DHT22;10667;51.056;3.732;2023-04-24T03:46:33;9.80;99.90
21019;DHT22;10667;51.056;3.732;2023-04-24T03:48:58;9.70;99.90
21019;DHT22;10667;51.056;3.732;2023-04-24T03:51:24;9.70;99.90
21019;DHT22;10667;51.056;3.732;2023-04-24T03:53:50;9.70;99.90
21019;DHT22;10667;51.056;3.732;2023-04-24T03:56:16;9.90;99.90
21019;DHT22;10667;51.056;3.732;2023-04-24T03:58:42;9.80;99.90
21019;DHT22;10667;51.056;3.732;2023-04-24T04:01:08;9.90;99.90
21019;DHT22;10667;51.056;3.732;2023-04-24T04:03:33;9.80;99.90
21019;DHT22;10667;51.056;3.732;2023-04-24T04:05:59;9.70;99.90
21019;DHT22;10667;51.056;3.732;2023-04-24T04:08:25;9.80;99.90
21019;DHT22;10667;51.056;3.732;2023-04-24T04:10:51;9.80;99.90
21019;DHT22;10667;51.056;3.732;2023-04-24T04:13:16;9.70;99.90
21019;DHT22;10667;51.056;3.732;2023-04-24T04:15:42;9.70;99.90
21019;DHT22;10667;51.056;3.732;2023-04-24T04:18:08;9.70;99.90
21019;DHT22;10667;51.056;3.732;2023-04-24T04:20:34;9.80;99.90
21019;DHT22;10667;51.056;3.732;2023-04-24T04:22:59;9.80;99.90
21019;DHT22;10667;51.056;3.732;2023-04-24T04:25:25;9.70;99.90
21019;DHT22;10667;51.056;3.732;2023-04-24T04:27:51;9.70;99.90
21019;DHT22;10667;51.056;3.732;2023-04-24T04:30:18;9.70;99.90
21019;DHT22;10667;51.056;3.732;2023-04-24T04:32:44;9.50;99.90
21019;DHT22;10667;51.056;3.732;2023-04-24T04:35:09;9.60;99.90
21019;DHT22;10667;51.056;3.732;2023-04-24T04:37:35;9.60;99.90
21019;DHT22;10667;51.056;3.732;2023-04-24T04:40:02;9.60;99.90
21019;DHT22;10667;51.056;3.732;2023-04-24T04:42:37;9.50;99.90
21019;DHT22;10667;51.056;3.732;2023-04-24T04:45:07;9.40;99.90
21019;DHT22;10667;51.056;3.732;2023-04-24T04:47:37;9.20;99.90
21019;DHT22;10667;51.056;3.732;2023-04-24T04:50:03;9.10;99.90
21019;DHT22;10667;51.056;3.732;2023-04-24T04:52:30;9.10;99.90
21019;DHT22;10667;51.056;3.732;2023-04-24T04:54:56;9.10;99.90
21019;DHT22;10667;51.056;3.732;2023-04-24T04:57:22;9.20;99.90
21019;DHT22;10667;51.056;3.732;2023-04-24T04:59:48;9.10;99.90
21019;DHT22;10667;51.056;3.732;2023-04-24T05:02:13;9.10;99.90
21019;DHT22;10667;51.056;3.732;2023-04-24T05:04:39;9.10;99.90
21019;DHT22;10667;51.056;3.732;2023-04-24T05:07:05;9.10;99.90
21019;DHT22;10667;51.056;3.732;2023-04-24T05:09:31;9.10;99.90
21019;DHT22;10667;51.056;3.732;2023-04-24T05:11:57;9.00;99.90
21019;DHT22;10667;51.056;3.732;2023-04-24T05:14:23;9.10;99.90
21019;DHT22;10667;51.056;3.732;2023-04-24T05:16:48;9.00;99.90
21019;DHT22;10667;51.056;3.732;2023-04-24T05:19:14;9.10;99.90
21019;DHT22;10667;51.056;3.732;2023-04-24T05:21:40;9.20;99.90
21019;DHT22;10667;51.056;3.732;2023-04-24T05:24:06;9.10;99.90
21019;DHT22;10667;51.056;3.732;2023-04-24T05:26:32;9.10;99.90
21019;DHT22;10667;51.056;3.732;2023-04-24T05:28:58;9.10;99.90
21019;DHT22;10667;51.056;3.732;2023-04-24T05:31:24;9.30;99.90
21019;DHT22;10667;51.056;3.732;2023-04-24T05:33:50;9.40;99.90
21019;DHT22;10667;51.056;3.732;2023-04-24T05:36:16;9.40;99.90
21019;DHT22;10667;51.056;3.732;2023-04-24T05:38:41;9.30;99.90
21019;DHT22;10667;51.056;3.732;2023-04-24T05:41:07;9.30;99.90
21019;DHT22;10667;51.056;3.732;2023-04-24T05:43:33;9.20;99.90
21019;DHT22;10667;51.056;3.732;2023-04-24T05:45:58;9.20;99.90
21019;DHT22;10667;51.056;3.732;2023-04-24T05:48:25;9.30;99.90
21019;DHT22;10667;51.056;3.732;2023-04-24T05:50:51;9.40;99.90
21019;DHT22;10667;51.056;3.732;2023-04-24T05:53:18;9.50;99.90
21019;DHT22;10667;51.056;3.732;2023-04-24T05:55:44;9.50;99.90
21019;DHT22;10667;51.056;3.732;2023-04-24T05:58:10;9.50;99.90
21019;DHT22;10667;51.056;3.732;2023-04-24T06:00:36;9.40;99.90
21019;DHT22;10667;51.056;3.732;2023-04-24T06:03:01;9.50;99.90
21019;DHT22;10667;51.056;3.732;2023-04-24T06:05:29;9.50;99.90
21019;DHT22;10667;51.056;3.732;2023-04-24T06:07:55;9.50;99.90
21019;DHT22;10667;51.056;3.732;2023-04-24T06:10:21;9.50;99.90
21019;DHT22;10667;51.056;3.732;2023-04-24T06:12:47;9.60;99.90
21019;DHT22;10667;51.056;3.732;2023-04-24T06:15:12;9.70;99.90
21019;DHT22;10667;51.056;3.732;2023-04-24T06:17:38;9.90;99.90
21019;DHT22;10667;51.056;3.732;2023-04-24T06:20:04;9.90;99.90
21019;DHT22;10667;51.056;3.732;2023-04-24T06:22:31;9.90;99.90
21019;DHT22;10667;51.056;3.732;2023-04-24T06:24:57;9.90;99.90
21019;DHT22;10667;51.056;3.732;2023-04-24T06:27:22;10.10;99.90
21019;DHT22;10667;51.056;3.732;2023-04-24T06:29:48;10.10;99.90
21019;DHT22;10667;51.056;3.732;2023-04-24T06:32:23;10.20;99.90
21019;DHT22;10667;51.056;3.732;2023-04-24T06:34:50;10.30;99.90
21019;DHT22;10667;51.056;3.732;2023-04-24T06:37:16;10.40;99.90
21019;DHT22;10667;51.056;3.732;2023-04-24T06:39:42;10.20;99.90
21019;DHT22;10667;51.056;3.732;2023-04-24T06:42:07;10.10;99.90
21019;DHT22;10667;51.056;3.732;2023-04-24T06:44:35;10.10;99.90
21019;DHT22;10667;51.056;3.732;2023-04-24T06:47:06;10.00;99.90
21019;DHT22;10667;51.056;3.732;2023-04-24T06:49:34;10.00;99.90
21019;DHT22;10667;51.056;3.732;2023-04-24T06:52:00;10.00;99.90
21019;DHT22;10667;51.056;3.732;2023-04-24T06:54:25;10.10;99.90
21019;DHT22;10667;51.056;3.732;2023-04-24T06:56:51;10.00;99.90
21019;DHT22;10667;51.056;3.732;2023-04-24T06:59:17;10.00;99.90
21019;DHT22;10667;51.056;3.732;2023-04-24T07:01:43;10.20;99.90
21019;DHT22;10667;51.056;3.732;2023-04-24T07:04:08;10.60;99.90
21019;DHT22;10667;51.056;3.732;2023-04-24T07:06:35;10.40;99.90
21019;DHT22;10667;51.056;3.732;2023-04-24T07:09:01;10.50;99.90
21019;DHT22;10667;51.056;3.732;2023-04-24T07:11:28;10.50;99.90
21019;DHT22;10667;51.056;3.732;2023-04-24T07:13:55;10.50;99.90
21019;DHT22;10667;51.056;3.732;2023-04-24T07:16:21;10.30;99.90
21019;DHT22;10667;51.056;3.732;2023-04-24T07:18:47;10.40;99.90
21019;DHT22;10667;51.056;3.732;2023-04-24T07:21:12;10.60;99.90
21019;DHT22;10667;51.056;3.732;2023-04-24T07:23:38;10.70;99.90
21019;DHT22;10667;51.056;3.732;2023-04-24T07:26:04;10.70;99.90
21019;DHT22;10667;51.056;3.732;2023-04-24T07:28:30;10.70;99.90
21019;DHT22;10667;51.056;3.732;2023-04-24T07:30:57;10.60;99.90
21019;DHT22;10667;51.056;3.732;2023-04-24T07:33:24;10.70;99.90
21019;DHT22;10667;51.056;3.732;2023-04-24T07:35:49;10.50;99.90
21019;DHT22;10667;51.056;3.732;2023-04-24T07:38:15;10.50;99.90
21019;DHT22;10667;51.056;3.732;2023-04-24T07:40:41;10.50;99.90
21019;DHT22;10667;51.056;3.732;2023-04-24T07:43:07;10.50;99.90
21019;DHT22;10667;51.056;3.732;2023-04-24T07:45:32;10.40;99.90
21019;DHT22;10667;51.056;3.732;2023-04-24T07:48:01;10.50;99.90
21019;DHT22;10667;51.056;3.732;2023-04-24T07:50:27;10.60;99.90
21019;DHT22;10667;51.056;3.732;2023-04-24T07:52:52;10.30;99.90
21019;DHT22;10667;51.056;3.732;2023-04-24T07:55:18;10.60;99.90
21019;DHT22;10667;51.056;3.732;2023-04-24T07:57:44;10.50;99.90
21019;DHT22;10667;51.056;3.732;2023-04-24T08:00:10;10.60;99.90
21019;DHT22;10667;51.056;3.732;2023-04-24T08:02:36;10.70;99.90
21019;DHT22;10667;51.056;3.732;2023-04-24T08:05:01;10.50;99.90
21019;DHT22;10667;51.056;3.732;2023-04-24T08:07:29;10.60;99.90
21019;DHT22;10667;51.056;3.732;2023-04-24T08:09:54;10.70;99.90
21019;DHT22;10667;51.056;3.732;2023-04-24T08:12:20;10.90;99.90
21019;DHT22;10667;51.056;3.732;2023-04-24T08:14:46;11.10;99.90
21019;DHT22;10667;51.056;3.732;2023-04-24T08:17:11;11.30;99.90
21019;DHT22;10667;51.056;3.732;2023-04-24T08:19:37;11.40;99.90
21019;DHT22;10667;51.056;3.732;2023-04-24T08:22:03;11.60;99.90
21019;DHT22;10667;51.056;3.732;2023-04-24T08:24:29;11.60;99.90
21019;DHT22;10667;51.056;3.732;2023-04-24T08:26:55;11.30;99.90
21019;DHT22;10667;51.056;3.732;2023-04-24T08:29:23;11.30;99.90
21019;DHT22;10667;51.056;3.732;2023-04-24T08:31:49;11.30;99.90
21019;DHT22;10667;51.056;3.732;2023-04-24T08:34:14;11.20;99.90
21019;DHT22;10667;51.056;3.732;2023-04-24T08:36:40;11.30;99.90
21019;DHT22;10667;51.056;3.732;2023-04-24T08:39:06;11.30;99.90
21019;DHT22;10667;51.056;3.732;2023-04-24T08:41:33;11.50;99.90
21019;DHT22;10667;51.056;3.732;2023-04-24T08:44:01;11.40;99.90
21019;DHT22;10667;51.056;3.732;2023-04-24T08:46:27;11.40;99.90
21019;DHT22;10667;51.056;3.732;2023-04-24T08:48:56;11.50;99.90
21019;DHT22;10667;51.056;3.732;2023-04-24T08:51:22;11.50;99.90
21019;DHT22;10667;51.056;3.732;2023-04-24T08:53:52;11.40;99.90
21019;DHT22;10667;51.056;3.732;2023-04-24T08:56:19;11.40;99.90
21019;DHT22;10667;51.056;3.732;2023-04-24T08:58:45;11.50;99.90
21019;DHT22;10667;51.056;3.732;2023-04-24T09:01:12;11.70;99.90
21019;DHT22;10667;51.056;3.732;2023-04-24T09:03:38;11.90;99.90
21019;DHT22;10667;51.056;3.732;2023-04-24T09:06:06;11.90;99.90
21019;DHT22;10667;51.056;3.732;2023-04-24T09:08:33;11.80;99.90
21019;DHT22;10667;51.056;3.732;2023-04-24T09:10:59;11.80;99.90
21019;DHT22;10667;51.056;3.732;2023-04-24T09:13:27;11.80;99.90
21019;DHT22;10667;51.056;3.732;2023-04-24T09:15:53;11.90;99.90
21019;DHT22;10667;51.056;3.732;2023-04-24T09:18:19;11.70;99.90
21019;DHT22;10667;51.056;3.732;2023-04-24T09:21:07;11.60;99.90
21019;DHT22;10667;51.056;3.732;2023-04-24T09:23:33;11.50;99.90
21019;DHT22;10667;51.056;3.732;2023-04-24T09:26:00;11.60;99.90
21019;DHT22;10667;51.056;3.732;2023-04-24T09:28:31;11.90;99.90
21019;DHT22;10667;51.056;3.732;2023-04-24T09:31:17;11.80;99.90
21019;DHT22;10667;51.056;3.732;2023-04-24T09:34:03;11.80;99.90
21019;DHT22;10667;51.056;3.732;2023-04-24T09:36:33;11.80;99.90
21019;DHT22;10667;51.056;3.732;2023-04-24T09:39:00;11.80;99.90
21019;DHT22;10667;51.056;3.732;2023-04-24T09:41:27;11.80;99.90
21019;DHT22;10667;51.056;3.732;2023-04-24T09:43:57;12.00;99.90
21019;DHT22;10667;51.056;3.732;2023-04-24T09:46:30;12.00;99.90
21019;DHT22;10667;51.056;3.732;2023-04-24T09:49:12;11.90;99.90
21019;DHT22;10667;51.056;3.732;2023-04-24T09:51:38;12.00;99.90
21019;DHT22;10667;51.056;3.732;2023-04-24T09:54:10;11.80;99.90
21019;DHT22;10667;51.056;3.732;2023-04-24T09:56:43;12.00;99.90
21019;DHT22;10667;51.056;3.732;2023-04-24T09:59:09;12.00;99.90
21019;DHT22;10667;51.056;3.732;2023-04-24T10:01:35;12.30;99.90
21019;DHT22;10667;51.056;3.732;2023-04-24T10:04:01;12.00;99.90
21019;DHT22;10667;51.056;3.732;2023-04-24T10:06:33;12.20;99.90
21019;DHT22;10667;51.056;3.732;2023-04-24T10:08:59;12.20;99.90
21019;DHT22;10667;51.056;3.732;2023-04-24T10:11:28;12.40;99.90
21019;DHT22;10667;51.056;3.732;2023-04-24T10:13:54;12.30;99.90
21019;DHT22;10667;51.056;3.732;2023-04-24T10:16:21;12.30;99.90
21019;DHT22;10667;51.056;3.732;2023-04-24T10:18:48;12.30;99.90
21019;DHT22;10667;51.056;3.732;2023-04-24T10:21:15;12.40;99.90
21019;DHT22;10667;51.056;3.732;2023-04-24T10:23:42;12.50;99.90
21019;DHT22;10667;51.056;3.732;2023-04-24T10:26:09;12.50;99.90
21019;DHT22;10667;51.056;3.732;2023-04-24T10:28:36;12.70;99.90
21019;DHT22;10667;51.056;3.732;2023-04-24T10:31:02;12.60;99.90
21019;DHT22;10667;51.056;3.732;2023-04-24T10:33:30;12.70;99.90
21019;DHT22;10667;51.056;3.732;2023-04-24T10:35:56;12.40;99.90
21019;DHT22;10667;51.056;3.732;2023-04-24T10:38:25;12.50;99.90
21019;DHT22;10667;51.056;3.732;2023-04-24T10:40:57;12.40;99.90
21019;DHT22;10667;51.056;3.732;2023-04-24T10:43:33;12.40;99.90
21019;DHT22;10667;51.056;3.732;2023-04-24T10:46:03;12.40;99.90
21019;DHT22;10667;51.056;3.732;2023-04-24T10:48:29;12.60;99.90
21019;DHT22;10667;51.056;3.732;2023-04-24T10:50:55;12.70;99.90
21019;DHT22;10667;51.056;3.732;2023-04-24T10:53:28;12.70;99.90
21019;DHT22;10667;51.056;3.732;2023-04-24T10:55:59;12.40;99.90
21019;DHT22;10667;51.056;3.732;2023-04-24T10:58:45;12.20;99.90
21019;DHT22;10667;51.056;3.732;2023-04-24T11:01:31;12.30;99.90
21019;DHT22;10667;51.056;3.732;2023-04-24T11:04:02;12.20;99.90
21019;DHT22;10667;51.056;3.732;2023-04-24T11:06:30;12.30;99.90
21019;DHT22;10667;51.056;3.732;2023-04-24T11:09:07;12.40;99.90
21019;DHT22;10667;51.056;3.732;2023-04-24T11:11:35;12.50;99.90
21019;DHT22;10667;51.056;3.732;2023-04-24T11:14:13;12.50;99.90
21019;DHT22;10667;51.056;3.732;2023-04-24T11:16:51;12.50;99.90
21019;DHT22;10667;51.056;3.732;2023-04-24T11:19:21;12.50;99.90
21019;DHT22;10667;51.056;3.732;2023-04-24T11:22:01;12.40;99.90
21019;DHT22;10667;51.056;3.732;2023-04-24T11:26:58;12.00;99.90
21019;DHT22;10667;51.056;3.732;2023-04-24T11:34:58;12.40;99.90
21019;DHT22;10667;51.056;3.732;2023-04-24T11:37:27;12.30;99.90
21019;DHT22;10667;51.056;3.732;2023-04-24T11:39:56;12.20;99.90
21019;DHT22;10667;51.056;3.732;2023-04-24T11:42:22;12.40;99.90
21019;DHT22;10667;51.056;3.732;2023-04-24T11:44:49;12.70;99.90
21019;DHT22;10667;51.056;3.732;2023-04-24T11:47:15;12.90;99.90
21019;DHT22;10667;51.056;3.732;2023-04-24T11:49:41;13.00;99.90
21019;DHT22;10667;51.056;3.732;2023-04-24T11:52:07;12.80;99.90
21019;DHT22;10667;51.056;3.732;2023-04-24T11:54:33;12.60;99.90
21019;DHT22;10667;51.056;3.732;2023-04-24T11:56:59;13.00;99.90
21019;DHT22;10667;51.056;3.732;2023-04-24T11:59:25;13.00;99.90
21019;DHT22;10667;51.056;3.732;2023-04-24T12:01:50;12.90;99.90
21019;DHT22;10667;51.056;3.732;2023-04-24T12:04:17;12.80;99.90
21019;DHT22;10667;51.056;3.732;2023-04-24T12:07:02;13.00;99.90
21019;DHT22;10667;51.056;3.732;2023-04-24T12:09:29;13.20;99.90
21019;DHT22;10667;51.056;3.732;2023-04-24T12:11:55;13.10;99.90
21019;DHT22;10667;51.056;3.732;2023-04-24T12:14:22;13.00;99.90
21019;DHT22;10667;51.056;3.732;2023-04-24T12:16:50;13.20;99.90
21019;DHT22;10667;51.056;3.732;2023-04-24T12:19:21;13.10;99.90
21019;DHT22;10667;51.056;3.732;2023-04-24T12:22:03;13.20;99.90
21019;DHT22;10667;51.056;3.732;2023-04-24T12:24:29;13.10;99.90
21019;DHT22;10667;51.056;3.732;2023-04-24T12:26:56;13.20;99.90
21019;DHT22;10667;51.056;3.732;2023-04-24T12:29:24;13.20;99.90
21019;DHT22;10667;51.056;3.732;2023-04-24T12:31:51;13.10;99.90
21019;DHT22;10667;51.056;3.732;2023-04-24T12:34:21;12.90;99.90
21019;DHT22;10667;51.056;3.732;2023-04-24T12:36:47;13.00;99.90
21019;DHT22;10667;51.056;3.732;2023-04-24T12:39:20;13.00;99.90
21019;DHT22;10667;51.056;3.732;2023-04-24T12:41:58;13.10;99.90
21019;DHT22;10667;51.056;3.732;2023-04-24T12:46:57;13.00;99.90
21019;DHT22;10667;51.056;3.732;2023-04-24T12:49:23;13.20;99.90
21019;DHT22;10667;51.056;3.732;2023-04-24T12:51:48;13.40;99.90
21019;DHT22;10667;51.056;3.732;2023-04-24T12:54:14;13.30;99.90
21019;DHT22;10667;51.056;3.732;2023-04-24T12:56:40;13.00;99.90
21019;DHT22;10667;51.056;3.732;2023-04-24T12:59:05;13.20;99.90
21019;DHT22;10667;51.056;3.732;2023-04-24T13:01:31;13.00;99.90
21019;DHT22;10667;51.056;3.732;2023-04-24T13:03:57;12.90;99.90
21019;DHT22;10667;51.056;3.732;2023-04-24T13:06:22;12.80;99.90
21019;DHT22;10667;51.056;3.732;2023-04-24T13:08:48;12.70;99.90
21019;DHT22;10667;51.056;3.732;2023-04-24T13:11:14;13.00;99.90
21019;DHT22;10667;51.056;3.732;2023-04-24T13:13:39;12.90;99.90
21019;DHT22;10667;51.056;3.732;2023-04-24T13:16:05;12.90;99.90
21019;DHT22;10667;51.056;3.732;2023-04-24T13:18:31;12.90;99.90
21019;DHT22;10667;51.056;3.732;2023-04-24T13:20:56;12.90;99.90
21019;DHT22;10667;51.056;3.732;2023-04-24T13:23:22;12.90;99.90
21019;DHT22;10667;51.056;3.732;2023-04-24T13:25:48;12.80;99.90
21019;DHT22;10667;51.056;3.732;2023-04-24T13:28:14;13.10;99.90
21019;DHT22;10667;51.056;3.732;2023-04-24T13:30:40;12.90;99.90
21019;DHT22;10667;51.056;3.732;2023-04-24T13:33:06;12.70;99.90
21019;DHT22;10667;51.056;3.732;2023-04-24T13:35:31;12.90;99.90
21019;DHT22;10667;51.056;3.732;2023-04-24T13:37:58;13.20;99.90
21019;DHT22;10667;51.056;3.732;2023-04-24T13:40:24;13.30;99.90
21019;DHT22;10667;51.056;3.732;2023-04-24T13:42:49;13.40;99.90
21019;DHT22;10667;51.056;3.732;2023-04-24T13:45:15;13.10;99.90
21019;DHT22;10667;51.056;3.732;2023-04-24T13:47:41;13.00;99.90
21019;DHT22;10667;51.056;3.732;2023-04-24T13:50:09;13.20;99.90
21019;DHT22;10667;51.056;3.732;2023-04-24T13:52:35;13.30;99.90
21019;DHT22;10667;51.056;3.732;2023-04-24T13:55:01;13.40;99.90
21019;DHT22;10667;51.056;3.732;2023-04-24T13:57:27;13.50;99.90
21019;DHT22;10667;51.056;3.732;2023-04-24T13:59:53;13.70;99.90
21019;DHT22;10667;51.056;3.732;2023-04-24T14:02:24;13.60;99.90
21019;DHT22;10667;51.056;3.732;2023-04-24T14:04:49;13.70;99.90
21019;DHT22;10667;51.056;3.732;2023-04-24T14:07:15;13.70;99.90
21019;DHT22;10667;51.056;3.732;2023-04-24T14:09:41;13.50;99.90
21019;DHT22;10667;51.056;3.732;2023-04-24T14:12:06;13.60;99.90
21019;DHT22;10667;51.056;3.732;2023-04-24T14:14:33;13.70;99.90
21019;DHT22;10667;51.056;3.732;2023-04-24T14:16:58;13.60;99.90
21019;DHT22;10667;51.056;3.732;2023-04-24T14:19:24;13.80;99.90
21019;DHT22;10667;51.056;3.732;2023-04-24T14:21:50;13.80;99.90
21019;DHT22;10667;51.056;3.732;2023-04-24T14:24:15;13.70;99.90
21019;DHT22;10667;51.056;3.732;2023-04-24T14:26:41;13.50;99.90
21019;DHT22;10667;51.056;3.732;2023-04-24T14:29:07;13.40;99.90
21019;DHT22;10667;51.056;3.732;2023-04-24T14:31:32;13.30;99.90
21019;DHT22;10667;51.056;3.732;2023-04-24T14:33:58;13.50;99.90
21019;DHT22;10667;51.056;3.732;2023-04-24T14:36:24;13.80;99.90
21019;DHT22;10667;51.056;3.732;2023-04-24T14:38:50;13.60;99.90
21019;DHT22;10667;51.056;3.732;2023-04-24T14:41:15;13.80;99.90
21019;DHT22;10667;51.056;3.732;2023-04-24T14:43:41;13.90;99.90
21019;DHT22;10667;51.056;3.732;2023-04-24T14:46:07;14.10;99.90
21019;DHT22;10667;51.056;3.732;2023-04-24T14:48:32;14.20;99.90
21019;DHT22;10667;51.056;3.732;2023-04-24T14:50:58;14.00;99.90
21019;DHT22;10667;51.056;3.732;2023-04-24T14:53:24;13.90;99.90
21019;DHT22;10667;51.056;3.732;2023-04-24T14:55:49;13.80;99.90
21019;DHT22;10667;51.056;3.732;2023-04-24T14:58:15;13.40;99.90
21019;DHT22;10667;51.056;3.732;2023-04-24T15:00:41;13.60;99.90
21019;DHT22;10667;51.056;3.732;2023-04-24T15:03:07;13.80;99.90
21019;DHT22;10667;51.056;3.732;2023-04-24T15:05:32;13.70;99.90
21019;DHT22;10667;51.056;3.732;2023-04-24T15:07:58;13.70;99.90
21019;DHT22;10667;51.056;3.732;2023-04-24T15:10:23;13.80;99.90
21019;DHT22;10667;51.056;3.732;2023-04-24T15:12:50;13.90;99.90
21019;DHT22;10667;51.056;3.732;2023-04-24T15:15:16;13.90;99.90
21019;DHT22;10667;51.056;3.732;2023-04-24T15:17:42;14.00;99.90
21019;DHT22;10667;51.056;3.732;2023-04-24T15:20:08;13.70;99.90
21019;DHT22;10667;51.056;3.732;2023-04-24T15:22:34;13.90;99.90
21019;DHT22;10667;51.056;3.732;2023-04-24T15:25:00;13.80;99.90
21019;DHT22;10667;51.056;3.732;2023-04-24T15:27:26;13.40;99.90
21019;DHT22;10667;51.056;3.732;2023-04-24T15:29:52;13.40;99.90
21019;DHT22;10667;51.056;3.732;2023-04-24T15:32:19;13.20;99.90
21019;DHT22;10667;51.056;3.732;2023-04-24T15:34:44;13.20;99.90
21019;DHT22;10667;51.056;3.732;2023-04-24T15:37:10;13.40;99.90
21019;DHT22;10667;51.056;3.732;2023-04-24T15:39:36;13.50;99.90
21019;DHT22;10667;51.056;3.732;2023-04-24T15:42:02;13.70;99.90